Etusivu
METAR-TAF:

METAR-TAF

Lentoasemat :

Aalborgin lentoasema

Aalborg, Tanska

Leveyspiiri: 57-06N, Pituuspiiri: 009-51E, korkeus merenpinnasta: 3 m

Tämänhetkinen sää

Tämä raportti tehtiin 36 minuuttia sitten, kello 22.50 UTC
Tuuli 15 kn idästä
Lämpötila 5°C
Kosteus 81%
Ilmanpaine 1027 hPa
Näkyvyys 10 km tai enemmän
heikkoa sadetta

METAR: EKYT 202250Z AUTO 08015KT 9999NDV -RA SCT024/// BKN029/// 05/02 Q1027

Aika: 00:26 (23:26 UTC)

Sääennuste

Tämä raportti tehtiin 3 tuntia ja 2 minuuttia sitten, kello 20.24 UTC
Ennuste voimassa 20. päivästä klo 21 UTC - 21. päivään klo 18 UTC
Tuuli 15 kn idästä
Näkyvyys 10 km tai enemmän
Hajanaisia pilviä 2000 ft:n korkeudessa
Hajonneita pilviä 3000 ft:n korkeudessa

TAF: EKYT 202024Z 2021/2118 09015KT 9999 SCT020 BKN030

Säähavainnot ja -ennusteet yli 4000 lentoasemalta (METAR- ja TAF-raportit).

Käytössä olevat sääasemat on merkitty karttaan keltaisilla ja punaisilla pisteillä.

Aseta hiiri pisteen päälle nähdäksesi sääaseman nimen.

Klikkaa sitten nähdäksesi säähavainnot ja -ennusteet.

Kartan vaihtaminen: klikkaa mustalla rastilla varustettuja vihreitä pisteitä, niin voit zoomata sisään; viivalla varustettua vihreää pistettä, niin voit zoomata ulos tai vihreitä nuolia, niin pääset viereisille kartoille.


METAR-TAF: